Terminal Aerodrome Forecast
Issued by NWS

Home | Current Version | Previous Version | Text Only | Print | Product List | Glossary On
Versions: 1 2 3 4 5 6 7 8 9 10 11 12 13 14 15 16 17
745
FTUS41 KAKQ 300857 AAA
TAFPHF
TAF AMD
KPHF 300857Z 3009/3106 18006KT P6SM -SHRADZ BKN004 BKN050 BKN100
     FM301400 VRB05KT 5SM -RA BR BKN010 BKN050 OVC100
     FM310000 07003KT 6SM -RA BKN020 OVC070=

USA.gov is the U.S. government's official web portal to all federal, state and local government web resources and services.